createdAt,value
2022-12-06T00:00:41.046Z,6.82
2022-12-06T00:04:06.304Z,6.83
2022-12-06T00:07:31.597Z,6.85
2022-12-06T00:10:56.831Z,6.85
2022-12-06T00:14:22.057Z,6.85
2022-12-06T00:17:47.304Z,6.88
2022-12-06T00:21:12.550Z,6.91
2022-12-06T00:24:37.773Z,6.94
2022-12-06T00:28:03.091Z,6.99
2022-12-06T00:31:28.304Z,7.01
2022-12-06T00:34:53.526Z,7.02
2022-12-06T00:38:18.796Z,7.03
2022-12-06T00:41:44.055Z,7.01
2022-12-06T00:45:09.330Z,6.96
2022-12-06T00:48:34.549Z,6.96
2022-12-06T00:51:59.779Z,6.92
2022-12-06T00:55:25.004Z,6.91
2022-12-06T00:58:50.262Z,6.89
2022-12-06T01:02:15.550Z,6.85
2022-12-06T01:05:40.783Z,6.85
2022-12-06T01:09:06.067Z,6.85
2022-12-06T01:12:31.348Z,6.83
2022-12-06T01:15:56.602Z,6.83
2022-12-06T01:19:21.883Z,6.81
2022-12-06T01:22:47.128Z,6.8
2022-12-06T01:26:12.366Z,6.78
2022-12-06T01:29:37.622Z,6.72
2022-12-06T01:33:02.886Z,6.63
2022-12-06T01:36:28.167Z,6.6
2022-12-06T01:39:53.354Z,6.59
2022-12-06T01:43:18.620Z,6.58
2022-12-06T01:46:43.891Z,6.61
2022-12-06T01:50:09.143Z,6.61
2022-12-06T01:53:34.433Z,6.6
2022-12-06T01:56:59.659Z,6.58
2022-12-06T02:00:24.891Z,6.58
2022-12-06T02:03:50.192Z,6.59
2022-12-06T02:07:15.442Z,6.62
2022-12-06T02:10:40.705Z,6.62
2022-12-06T02:14:05.947Z,6.61
2022-12-06T02:17:31.195Z,6.6
2022-12-06T02:20:56.437Z,6.63
2022-12-06T02:24:21.704Z,6.66
2022-12-06T02:27:47.016Z,6.68
2022-12-06T02:31:12.345Z,6.72
2022-12-06T02:34:37.478Z,6.72
2022-12-06T02:38:02.747Z,6.73
2022-12-06T02:41:27.993Z,6.73
2022-12-06T02:44:53.263Z,6.76
2022-12-06T02:48:18.499Z,6.75
2022-12-06T02:51:43.741Z,6.68
2022-12-06T02:55:09.031Z,6.6
2022-12-06T02:58:34.306Z,6.55
2022-12-06T03:01:59.640Z,6.5
2022-12-06T03:05:24.774Z,6.42
2022-12-06T03:08:50.064Z,6.34
2022-12-06T03:12:15.352Z,6.31
2022-12-06T03:15:40.626Z,6.31
2022-12-06T03:19:05.834Z,6.29
2022-12-06T03:22:33.466Z,6.25
2022-12-06T03:25:56.302Z,6.21
2022-12-06T03:29:21.554Z,6.13
2022-12-06T03:32:46.809Z,6.09
2022-12-06T03:36:12.071Z,6.07
2022-12-06T03:39:37.280Z,6.05
2022-12-06T03:43:02.529Z,6.07
2022-12-06T03:46:28.196Z,6.08
2022-12-06T03:49:53.022Z,6.06
2022-12-06T03:53:18.321Z,6.07
2022-12-06T03:56:43.558Z,6.05
2022-12-06T04:00:08.784Z,6.04
2022-12-06T04:03:34.062Z,6
2022-12-06T04:06:59.296Z,5.95
2022-12-06T04:10:24.562Z,5.92
2022-12-06T04:13:49.780Z,5.91
2022-12-06T04:17:15.032Z,5.89
2022-12-06T04:20:40.247Z,5.9
2022-12-06T04:24:05.531Z,5.87
2022-12-06T04:27:30.790Z,5.84
2022-12-06T04:30:56.020Z,5.81
2022-12-06T04:34:21.259Z,5.76
2022-12-06T04:37:46.505Z,5.76
2022-12-06T04:41:11.745Z,5.76
2022-12-06T04:44:37.002Z,5.76
2022-12-06T04:48:02.235Z,5.78
2022-12-06T04:51:27.707Z,5.79
2022-12-06T04:54:53.002Z,5.85
2022-12-06T04:58:18.334Z,5.89
2022-12-06T05:01:43.621Z,5.95
2022-12-06T05:05:08.891Z,5.99
2022-12-06T05:08:34.161Z,5.99
2022-12-06T05:11:59.948Z,5.99
2022-12-06T05:15:28.981Z,5.99
2022-12-06T05:18:50.450Z,5.99
2022-12-06T05:22:15.708Z,6.02
2022-12-06T05:25:40.950Z,6.04
2022-12-06T05:29:06.218Z,6.04
2022-12-06T05:32:31.462Z,6.08
2022-12-06T05:35:56.760Z,6.12
2022-12-06T05:39:22.005Z,6.15
2022-12-06T05:42:47.277Z,6.16
2022-12-06T05:46:12.665Z,6.21
2022-12-06T05:49:37.864Z,6.23
2022-12-06T05:53:03.227Z,6.22
2022-12-06T05:56:28.451Z,6.22
2022-12-06T05:59:53.710Z,6.27
2022-12-06T06:03:19.069Z,6.31
2022-12-06T06:06:44.229Z,6.32
2022-12-06T06:10:09.504Z,6.3
2022-12-06T06:13:34.755Z,6.25
2022-12-06T06:17:00.039Z,6.21
2022-12-06T06:20:25.248Z,6.2
2022-12-06T06:23:50.516Z,6.21
2022-12-06T06:27:15.866Z,6.22
2022-12-06T06:30:41.515Z,6.22
2022-12-06T06:34:07.003Z,6.23
2022-12-06T06:37:32.366Z,6.28
2022-12-06T06:40:57.872Z,6.3
2022-12-06T06:44:23.458Z,6.3
2022-12-06T06:47:48.913Z,6.29
2022-12-06T06:51:14.518Z,6.31
2022-12-06T06:54:40.130Z,6.28
2022-12-06T06:58:05.714Z,6.32
2022-12-06T07:01:31.249Z,6.36
2022-12-06T07:04:56.724Z,6.44
2022-12-06T07:08:22.225Z,6.49
2022-12-06T07:11:47.815Z,6.51
2022-12-06T07:15:13.435Z,6.53
2022-12-06T07:18:39.530Z,6.58
2022-12-06T07:22:05.144Z,6.59
2022-12-06T07:25:30.852Z,6.63
2022-12-06T07:29:01.072Z,6.69
2022-12-06T07:32:26.810Z,6.7
2022-12-06T07:36:13.164Z,6.73
2022-12-06T07:39:17.800Z,6.7
2022-12-06T07:42:43.271Z,6.68
2022-12-06T07:46:08.731Z,6.67
2022-12-06T07:49:34.158Z,6.7
2022-12-06T07:52:59.744Z,6.74
2022-12-06T07:56:28.076Z,6.76
2022-12-06T07:59:53.732Z,6.78
2022-12-06T08:03:19.146Z,6.76
2022-12-06T08:06:44.861Z,6.73
2022-12-06T08:10:10.367Z,6.7
2022-12-06T08:13:37.167Z,6.7
2022-12-06T08:17:02.795Z,6.65
2022-12-06T08:20:28.313Z,6.64
2022-12-06T08:23:53.715Z,6.67
2022-12-06T08:27:19.360Z,6.69
2022-12-06T08:30:44.870Z,6.74
2022-12-06T08:34:10.393Z,6.76
2022-12-06T08:37:35.985Z,6.74
2022-12-06T08:41:01.601Z,6.78
2022-12-06T08:44:27.189Z,6.79
2022-12-06T08:47:52.653Z,6.78
2022-12-06T08:51:18.245Z,6.73
2022-12-06T08:54:43.861Z,6.69
2022-12-06T08:58:09.537Z,6.69
2022-12-06T09:01:37.977Z,6.75
2022-12-06T09:05:01.518Z,6.72
2022-12-06T09:08:26.947Z,6.67
2022-12-06T09:11:52.481Z,6.62
2022-12-06T09:15:18.496Z,6.6
2022-12-06T09:18:44.007Z,6.6
2022-12-06T09:22:09.520Z,6.63
2022-12-06T09:25:35.176Z,6.67
2022-12-06T09:29:00.761Z,6.68
2022-12-06T09:32:37.486Z,6.7
2022-12-06T09:36:03.017Z,6.71
2022-12-06T09:39:28.577Z,6.73
2022-12-06T09:42:54.219Z,6.72
2022-12-06T09:46:19.985Z,6.63
2022-12-06T09:49:45.571Z,6.62
2022-12-06T09:53:11.305Z,6.66
2022-12-06T09:56:36.858Z,6.66
2022-12-06T10:00:04.390Z,6.61
2022-12-06T10:03:28.284Z,6.58
2022-12-06T10:06:53.767Z,6.56
2022-12-06T10:10:20.018Z,6.52
2022-12-06T10:13:45.467Z,6.46
2022-12-06T10:17:10.936Z,6.42
2022-12-06T10:20:36.335Z,6.35
2022-12-06T10:24:02.403Z,6.33
2022-12-06T10:27:27.633Z,6.36
2022-12-06T10:30:53.372Z,6.31
2022-12-06T10:34:18.750Z,6.28
2022-12-06T10:37:44.197Z,6.28
2022-12-06T10:41:09.561Z,6.31
2022-12-06T10:44:35.130Z,6.36
2022-12-06T10:48:00.604Z,6.4
2022-12-06T10:51:25.955Z,6.44
2022-12-06T10:54:51.425Z,6.48
2022-12-06T10:58:16.905Z,6.49
2022-12-06T11:01:42.464Z,6.39
2022-12-06T11:05:07.885Z,6.28
2022-12-06T11:08:33.408Z,6.21
2022-12-06T11:11:59.015Z,6.18
2022-12-06T11:15:24.542Z,6.12
2022-12-06T11:18:49.918Z,6.04
2022-12-06T11:22:15.484Z,5.99
2022-12-06T11:25:41.041Z,5.92
2022-12-06T11:29:06.667Z,5.9
2022-12-06T11:32:32.060Z,5.91
2022-12-06T11:35:57.744Z,5.89
2022-12-06T11:39:23.166Z,5.84
2022-12-06T11:42:48.923Z,5.85
2022-12-06T11:46:14.495Z,5.85
2022-12-06T11:49:40.118Z,5.88
2022-12-06T11:53:05.711Z,5.87
2022-12-06T11:56:31.549Z,5.87
2022-12-06T11:59:58.649Z,5.92
2022-12-06T12:03:23.838Z,5.99
2022-12-06T12:07:20.203Z,6.06
2022-12-06T12:10:45.695Z,6.13
2022-12-06T12:14:11.042Z,6.2
2022-12-06T12:17:36.444Z,6.3
2022-12-06T12:21:01.824Z,6.36
2022-12-06T12:24:27.126Z,6.39
2022-12-06T12:27:52.482Z,6.36
2022-12-06T12:31:17.912Z,6.35
2022-12-06T12:34:44.937Z,6.37
2022-12-06T12:38:10.290Z,6.36
2022-12-06T12:41:35.574Z,6.31
2022-12-06T12:45:01.187Z,6.32
2022-12-06T12:48:26.251Z,6.37
2022-12-06T12:51:51.526Z,6.4
2022-12-06T12:55:16.828Z,6.43
2022-12-06T12:58:42.151Z,6.45
2022-12-06T13:02:07.556Z,6.43
2022-12-06T13:05:34.469Z,6.34
2022-12-06T13:08:58.138Z,6.28
2022-12-06T13:12:23.478Z,6.29
2022-12-06T13:15:48.805Z,6.32
2022-12-06T13:19:14.139Z,6.29
2022-12-06T13:22:39.432Z,6.29
2022-12-06T13:26:04.724Z,6.29
2022-12-06T13:29:30.050Z,6.28
2022-12-06T13:32:55.352Z,6.29
2022-12-06T13:36:20.641Z,6.29
2022-12-06T13:39:45.904Z,6.31
2022-12-06T13:43:11.308Z,6.3
2022-12-06T13:46:36.658Z,6.26
2022-12-06T13:50:02.138Z,6.27
2022-12-06T13:53:27.225Z,6.23
2022-12-06T13:56:52.512Z,6.13
2022-12-06T14:00:17.794Z,6.06
2022-12-06T14:03:43.337Z,6.04
2022-12-06T14:07:00.419Z,6.01
2022-12-06T14:10:26.414Z,6.01
2022-12-06T14:13:51.793Z,6.06
2022-12-06T14:17:32.365Z,6.05
2022-12-06T14:20:42.445Z,5.99
2022-12-06T14:24:07.812Z,5.9
2022-12-06T14:27:33.161Z,5.77
2022-12-06T14:30:58.459Z,5.73
2022-12-06T15:05:04.275Z,3.34
2022-12-06T15:08:29.681Z,4.27
2022-12-06T15:11:55.442Z,4.43
2022-12-06T15:15:22.395Z,4.62
2022-12-06T15:18:48.079Z,4.78
2022-12-06T15:22:13.393Z,4.94
2022-12-06T15:25:38.660Z,5.06
2022-12-06T15:29:03.969Z,5.15
2022-12-06T15:32:29.335Z,5.23
2022-12-06T15:35:54.652Z,5.3
2022-12-06T15:39:19.986Z,5.36
2022-12-06T15:42:46.017Z,5.44
2022-12-06T15:46:11.394Z,5.48
2022-12-06T15:49:36.720Z,5.54
2022-12-06T15:53:02.107Z,5.58
2022-12-06T15:56:27.454Z,5.59
2022-12-06T15:59:52.724Z,5.56
2022-12-06T16:03:18.116Z,5.54
2022-12-06T16:06:43.333Z,5.52
2022-12-06T16:10:08.631Z,5.44
2022-12-06T16:13:33.939Z,5.4
2022-12-06T16:16:59.226Z,5.31
2022-12-06T16:20:24.497Z,5.26
2022-12-06T16:24:12.312Z,5.28
2022-12-06T16:27:15.143Z,5.3
2022-12-06T16:30:40.513Z,5.3
2022-12-06T16:34:05.777Z,5.3
2022-12-06T16:37:31.071Z,5.27
2022-12-06T16:40:58.643Z,5.25
2022-12-06T16:44:21.658Z,5.27
2022-12-06T16:47:46.956Z,5.28
2022-12-06T16:51:12.235Z,5.24
2022-12-06T16:54:37.611Z,5.17
2022-12-06T16:58:02.927Z,5.13
2022-12-06T17:01:28.220Z,5.08
2022-12-06T17:04:53.529Z,5.05
2022-12-06T17:08:21.831Z,5.07
2022-12-06T17:11:44.107Z,5.08
2022-12-06T17:15:09.445Z,5.06
2022-12-06T17:18:34.710Z,5.05
2022-12-06T17:22:00.013Z,5.09
2022-12-06T17:25:25.267Z,5.1
2022-12-06T17:28:50.596Z,5.13
2022-12-06T17:32:15.945Z,5.18
2022-12-06T17:35:41.234Z,5.26
2022-12-06T17:39:06.568Z,5.34
2022-12-06T17:42:31.905Z,5.39
2022-12-06T17:45:57.291Z,5.5
2022-12-06T17:49:22.522Z,5.57
2022-12-06T17:52:47.846Z,5.66
2022-12-06T17:56:13.168Z,5.7
2022-12-06T17:59:38.448Z,5.75
2022-12-06T18:03:03.972Z,5.77
2022-12-06T18:06:29.362Z,5.77
2022-12-06T18:09:54.854Z,5.79
2022-12-06T18:13:20.248Z,5.81
2022-12-06T18:16:45.836Z,5.8
2022-12-06T18:20:11.072Z,5.85
2022-12-06T18:23:40.862Z,5.87
2022-12-06T18:27:01.632Z,5.87
2022-12-06T18:30:26.934Z,5.86
2022-12-06T18:33:52.300Z,5.84
2022-12-06T18:37:17.635Z,5.88
2022-12-06T18:40:43.719Z,5.88
2022-12-06T18:44:09.026Z,5.93
2022-12-06T18:47:34.400Z,5.97
2022-12-06T18:50:59.683Z,5.94
2022-12-06T18:54:24.969Z,5.94
2022-12-06T18:57:50.233Z,6
2022-12-06T19:01:15.569Z,6.06
2022-12-06T19:04:40.818Z,6.08
2022-12-06T19:08:06.143Z,6.09
2022-12-06T19:11:31.351Z,6.13
2022-12-06T19:14:56.642Z,6.1
2022-12-06T19:18:21.927Z,6.06
2022-12-06T19:21:47.212Z,6.01
2022-12-06T19:25:12.484Z,6.04
2022-12-06T19:28:37.792Z,6.08
2022-12-06T19:32:09.143Z,6.08
2022-12-06T19:35:34.425Z,6.11
2022-12-06T19:39:00.353Z,6.1
2022-12-06T19:42:25.599Z,6.07
2022-12-06T19:45:50.995Z,5.97
2022-12-06T19:49:16.673Z,5.84
2022-12-06T19:52:42.025Z,5.75
2022-12-06T19:56:07.309Z,5.65
2022-12-06T19:59:32.592Z,5.57
2022-12-06T20:02:58.053Z,5.56
2022-12-06T20:06:23.578Z,5.59
2022-12-06T20:09:49.000Z,5.64
2022-12-06T20:13:14.476Z,5.72
2022-12-06T20:16:39.861Z,5.8
2022-12-06T20:20:05.154Z,5.9
2022-12-06T20:23:30.641Z,5.99
2022-12-06T20:26:55.925Z,6.03
2022-12-06T20:30:21.226Z,6.07
2022-12-06T20:33:46.507Z,6.14
2022-12-06T20:37:11.896Z,6.15
2022-12-06T20:40:37.194Z,6.18
2022-12-06T20:44:02.638Z,6.21
2022-12-06T20:47:28.004Z,6.21
2022-12-06T20:50:53.324Z,6.23
2022-12-06T20:54:19.249Z,6.28
2022-12-06T20:57:44.590Z,6.31
2022-12-06T21:01:09.894Z,6.31
2022-12-06T21:04:35.215Z,6.29
2022-12-06T21:08:00.695Z,6.29
2022-12-06T21:11:25.933Z,6.28
2022-12-06T21:14:51.262Z,6.27
2022-12-06T21:18:19.765Z,6.31
2022-12-06T21:21:42.100Z,6.33
2022-12-06T21:25:07.709Z,6.32
2022-12-06T21:28:32.790Z,6.34
2022-12-06T21:31:58.311Z,6.32
2022-12-06T21:35:23.624Z,6.33
2022-12-06T21:38:48.966Z,6.34
2022-12-06T21:42:14.242Z,6.36
2022-12-06T21:45:39.559Z,6.36
2022-12-06T21:49:05.655Z,6.33
2022-12-06T21:52:31.082Z,6.28
2022-12-06T21:55:56.385Z,6.25
2022-12-06T21:59:21.692Z,6.28
2022-12-06T22:02:47.020Z,6.31
2022-12-06T22:06:12.241Z,6.35
2022-12-06T22:09:37.529Z,6.38
2022-12-06T22:13:02.888Z,6.41
2022-12-06T22:16:28.275Z,6.46
2022-12-06T22:19:53.489Z,6.51
2022-12-06T22:23:18.823Z,6.54
2022-12-06T22:26:44.132Z,6.56
2022-12-06T22:30:09.416Z,6.58
2022-12-06T22:33:34.664Z,6.59
2022-12-06T22:36:59.955Z,6.6
2022-12-06T22:40:25.233Z,6.63
2022-12-06T22:43:50.484Z,6.62
2022-12-06T22:47:15.824Z,6.64
2022-12-06T22:50:40.995Z,6.66
2022-12-06T22:54:06.273Z,6.68
2022-12-06T22:57:31.531Z,6.69
2022-12-06T23:00:56.772Z,6.69
2022-12-06T23:04:22.136Z,6.67
2022-12-06T23:07:47.341Z,6.67
2022-12-06T23:11:12.502Z,6.68
2022-12-06T23:14:37.782Z,6.64
2022-12-06T23:18:03.019Z,6.63
2022-12-06T23:21:28.340Z,6.59
2022-12-06T23:24:53.602Z,6.38
2022-12-06T23:28:18.871Z,6.22
2022-12-06T23:31:44.141Z,6.12
2022-12-06T23:35:09.356Z,6
2022-12-06T23:38:34.662Z,5.94
2022-12-06T23:41:59.876Z,5.85
2022-12-06T23:45:25.142Z,5.79
2022-12-06T23:48:50.431Z,5.7
2022-12-06T23:52:15.699Z,5.61
2022-12-06T23:55:40.963Z,5.55
2022-12-06T23:59:06.209Z,5.46
